Maribor, Slovenia

3:30 AM CEST on March 30, 2015 (GMT +0200)
Brezula - Race | | Change Station
CLOSE
Current Station
Personal Weather Station
Location: Race, STAJERSKA
Elevation: 836 ft
Nearby Weather Stations

Elev 836 ft 46.44 °N, 15.70 °E | Updated 3 seconds ago

Clear
Clear
52.0 °F
Feels Like 52.0 °F
N
3.0
Wind Variable Wind from NW
Gusts 6.7 mph

Today
High -- | Low -- °F
--% Chance of Precip.
Yesterday
High -- | Low -- °F
Precip. -- in
6:41 AM 7:22 PM
Waxing Gibbous, 75% visible
Pressure 29.53 in
Visibility -9999.0 miles
Clouds
Dew Point 37 °F
Humidity 57%
Rainfall 0.00 in
Snow Depth Not available.
UV Not available.
Pollen Not available.
Air Quality Not available.
Flu Activity Not available.
METAR LOWG 300120Z AUTO VRB01KT CAVOK 07/05 Q1000

More Conditions Fewer Conditions

Pressure 29.53 in
Visibility -9999.0 miles
Clouds
Dew Point 37 °F
Humidity 57%
Rainfall 0.00 in
Snow Depth Not available.
UV Not available.
Pollen Not available.
Air Quality Not available.
Flu Activity Not available.
METAR LOWG 300120Z AUTO VRB01KT CAVOK 07/05 Q1000

More Conditions Fewer Conditions

10-Day Weather Forecast

Almanac

Astronomy

Mar. 30, 2015 Rise Set
Actual Time
Civil Twilight
Nautical Twilight
Astronomical Twilight
Moon
Length of Visible Light
Length of Day
Tomorrow will be .
, % of the Moon is Illuminated

Today's Extremes

Country Highs Country Lows

Community

WunderPhotos

Upload Photos

1,809,392 photos uploaded!

WunderBlogs® & News

Nearby

Air Quality

  Air Quality AQ Index Pollutant
Not available.

Snow Depth

Station Depth Elevation

Earthquake Activity

City Distance Mag. Time & Date
Minimum magnitude displayed is 2.5.

Coastal Water Temperatures

Place Temperature

Stations

Nearby Weather Stations

Station Location Temp. Windchill Dew Point Humidity Wind Precip. Elev Updated Type